Aérodrome :
LOGIN :

S'inscrire | Disclaimer

   EN    FR    IT 

 










Légende :    VFR   VFR Marginal   IFR   IFR Intensif   IFR Très Intensif
Visi : 
Plafond : 
>= 8 km
>= 3000ft
5 à 8 km
1000 à 3000 ft
1500m à 5 km
500 à 1000 ft
800 à 1500m
200 à 500 ft
< 800m
< 200 ft
Symboles :   Orages  Brouillard  Fortes neiges  Fortes précipitations  Vent > 20 kt
SIGMETs :   Divers  Orages  Givrage  Turbulence  Onde Orograph.  Cendres Volcan.






- Altitude de l'aérodrome : 202 ft
- Code IATA : LGW


EGKK - London Gatwick

DERNIER METAR :
  • 140020Z 12007KT 090V150 9999 RA SCT014 BKN019 06/06 Q0988

METARs EXPIRÉS :
  • 132350Z 13007KT 100V170 9000 RA SCT010 BKN015 BKN034TCU 07/06 Q0989
  • 132320Z 16004KT 110V220 7000 RA SCT012 BKN020 07/06 Q0989
  • 132250Z 13004KT 100V170 9999 -RA SCT012 BKN020 07/06 Q0989
  • 132220Z 11007KT 9999 -RA SCT013 SCT020 BKN036 07/06 Q0989
  • 132150Z 14006KT 100V180 6000 -RA FEW012 SCT017 BKN032 07/06 Q0990

TAF TAF EGKK
Valide du 14 à 00h jusqu'au 15 à 06h UTC


132300Z 1400/1506 VRB04KT 9999 BKN025
TEMPO 1400/1403 7000 SHRA BKN012
PROB30
TEMPO 1400/1403 13010G20KT 4000 +SHRA BKN009
TEMPO 1403/1411 6000 BKN004
PROB30
TEMPO 1403/1411 0400 FG OVC000
PROB40
TEMPO 1411/1422 6000 SHRA BKN012
TEMPO 1502/1506 6000 -SHRA BKN012



MET'MAP, la Météo Aéronautique d'un coup d'oeil ! - Copyright ORBIFLY Décembre 2007 - Disclaimer

ORBIFLY MET'MAP TEAM :

Programmation & Développement : Alexandra Zaïnal
Conception & Développement : Baudouin d'Aumeries
Co-Programmation & Développement : Marc-Olivier Méhu
Soutien technique & logistique : Manuel Goepfert

Contact : metmap@orbifly.com




SOURCES & CREDITS :

   NOAA